createdAt,value
2019-04-05T00:00:03.577Z,42.4
2019-04-05T00:02:04.981Z,50.7
2019-04-05T00:04:06.405Z,39.6
2019-04-05T00:06:07.741Z,44.5
2019-04-05T00:08:09.174Z,42.9
2019-04-05T00:10:10.592Z,43.4
2019-04-05T00:12:12.019Z,50.3
2019-04-05T00:14:13.450Z,43.5
2019-04-05T00:16:14.793Z,49.7
2019-04-05T00:18:16.198Z,41.4
2019-04-05T00:20:17.542Z,37.5
2019-04-05T00:22:18.970Z,43.6
2019-04-05T00:24:20.367Z,46.5
2019-04-05T00:26:21.694Z,46.2
2019-04-05T00:28:23.189Z,48.4
2019-04-05T00:30:24.467Z,47.2
2019-04-05T00:32:25.897Z,44.1
2019-04-05T00:34:27.245Z,40.6
2019-04-05T00:36:28.678Z,44.1
2019-04-05T00:38:30.024Z,44
2019-04-05T00:40:31.356Z,47.6
2019-04-05T00:42:32.783Z,41.4
2019-04-05T00:44:34.119Z,45.2
2019-04-05T00:46:35.546Z,44.5
2019-04-05T00:48:36.945Z,47.5
2019-04-05T00:50:38.386Z,44.1
2019-04-05T00:52:39.707Z,49.7
2019-04-05T00:54:41.088Z,41.9
2019-04-05T00:56:42.518Z,43.4
2019-04-05T00:58:43.947Z,44.5
2019-04-05T01:00:45.332Z,44.4
2019-04-05T01:02:46.767Z,45.3
2019-04-05T01:04:48.151Z,45.9
2019-04-05T01:06:49.569Z,44.5
2019-04-05T01:08:50.825Z,43.1
2019-04-05T01:10:52.241Z,43.4
2019-04-05T01:12:53.678Z,43.6
2019-04-05T01:14:55.102Z,44.2
2019-04-05T01:16:56.489Z,41
2019-04-05T01:18:57.881Z,41.8
2019-04-05T01:20:59.310Z,39.6
2019-04-05T01:23:00.742Z,41.5
2019-04-05T01:25:02.174Z,37.4
2019-04-05T01:27:03.604Z,40
2019-04-05T01:29:05.006Z,37.5
2019-04-05T01:31:06.381Z,39.3
2019-04-05T01:33:07.805Z,42.1
2019-04-05T01:35:09.174Z,38.5
2019-04-05T01:37:10.524Z,36.8
2019-04-05T01:39:11.903Z,35.2
2019-04-05T01:41:13.316Z,36.6
2019-04-05T01:43:14.654Z,37.3
2019-04-05T01:45:16.046Z,38.7
2019-04-05T01:47:17.467Z,37.2
2019-04-05T01:49:18.842Z,31.5
2019-04-05T01:51:20.218Z,34
2019-04-05T01:53:21.596Z,37.8
2019-04-05T01:55:22.928Z,34.9
2019-04-05T01:57:24.364Z,35.1
2019-04-05T01:59:25.781Z,35.9
2019-04-05T02:01:27.211Z,33.9
2019-04-05T02:03:28.643Z,32.6
2019-04-05T02:05:30.174Z,34.9
2019-04-05T02:07:31.606Z,36.1
2019-04-05T02:09:33.060Z,31.4
2019-04-05T02:11:34.429Z,31.4
2019-04-05T02:13:35.810Z,35.9
2019-04-05T02:15:37.241Z,35.1
2019-04-05T02:17:38.669Z,36.6
2019-04-05T02:19:40.145Z,37.6
2019-04-05T02:21:41.534Z,36.5
2019-04-05T02:23:42.963Z,38.5
2019-04-05T02:25:44.386Z,36.4
2019-04-05T02:27:45.716Z,38.9
2019-04-05T02:29:47.146Z,35.3
2019-04-05T02:31:48.490Z,39
2019-04-05T02:33:49.896Z,41
2019-04-05T02:35:51.336Z,39.7
2019-04-05T02:37:52.750Z,39.2
2019-04-05T02:39:54.177Z,42
2019-04-05T02:41:55.634Z,40.6
2019-04-05T02:43:57.008Z,40.1
2019-04-05T02:45:58.387Z,41.9
2019-04-05T02:47:59.758Z,39.5
2019-04-05T02:50:01.144Z,45.4
2019-04-05T02:52:02.545Z,44.1
2019-04-05T02:54:03.973Z,43.6
2019-04-05T02:56:05.337Z,37.7
2019-04-05T02:58:06.667Z,40.7
2019-04-05T03:00:07.994Z,38.8
2019-04-05T03:02:09.423Z,42.7
2019-04-05T03:04:10.786Z,43.5
2019-04-05T03:06:12.100Z,37.2
2019-04-05T03:08:13.473Z,42.4
2019-04-05T03:10:14.811Z,40.7
2019-04-05T03:12:18.894Z,41.7
2019-04-05T03:14:20.735Z,44.9
2019-04-05T03:16:38.462Z,41.1
2019-04-05T03:18:42.897Z,40.6
2019-04-05T03:20:44.326Z,40.3
2019-04-05T03:22:45.750Z,38.9
2019-04-05T03:24:47.297Z,40.9
2019-04-05T03:26:48.711Z,42.7
2019-04-05T03:28:50.113Z,39
2019-04-05T03:30:51.547Z,37
2019-04-05T03:32:52.974Z,37.4
2019-04-05T03:34:54.391Z,39.5
2019-04-05T03:36:55.782Z,40.9
2019-04-05T03:38:57.136Z,40.2
2019-04-05T03:40:58.541Z,40.3
2019-04-05T03:42:59.932Z,39
2019-04-05T03:45:01.363Z,39.8
2019-04-05T03:47:02.792Z,37.5
2019-04-05T03:49:04.165Z,38
2019-04-05T03:51:05.542Z,32.6
2019-04-05T03:53:06.792Z,32.1
2019-04-05T03:55:08.228Z,34.8
2019-04-05T03:57:09.658Z,34
2019-04-05T03:59:11.083Z,35.9
2019-04-05T04:01:12.513Z,36.2
2019-04-05T04:03:13.883Z,36
2019-04-05T04:05:15.270Z,30.9
2019-04-05T04:07:16.690Z,34
2019-04-05T04:09:18.043Z,30.5
2019-04-05T04:11:19.440Z,31.6
2019-04-05T04:13:20.857Z,30.5
2019-04-05T04:15:22.206Z,28.6
2019-04-05T04:17:23.641Z,27.4
2019-04-05T04:19:24.974Z,32.3
2019-04-05T04:21:26.303Z,26.9
2019-04-05T04:23:27.725Z,34
2019-04-05T04:25:29.135Z,27.3
2019-04-05T04:27:30.556Z,29.3
2019-04-05T04:29:31.900Z,24.5
2019-04-05T04:31:33.266Z,30.9
2019-04-05T04:33:34.602Z,29.1
2019-04-05T04:35:36.308Z,28.9
2019-04-05T04:37:39.224Z,31.9
2019-04-05T04:39:40.712Z,28.5
2019-04-05T04:41:43.234Z,30.8
2019-04-05T04:43:46.035Z,26.9
2019-04-05T04:45:50.386Z,27.9
2019-04-05T04:47:52.182Z,26.8
2019-04-05T04:49:56.319Z,29.9
2019-04-05T04:51:58.135Z,29.6
2019-04-05T04:54:00.098Z,28.4
2019-04-05T04:56:01.731Z,31.5
2019-04-05T04:58:03.216Z,32.8
2019-04-05T05:00:04.816Z,32.6
2019-04-05T05:02:06.270Z,33.2
2019-04-05T05:04:08.366Z,34
2019-04-05T05:06:09.998Z,36.9
2019-04-05T05:08:12.725Z,34.9
2019-04-05T05:10:17.491Z,34.1
2019-04-05T05:12:18.882Z,35.9
2019-04-05T05:14:20.636Z,35.8
2019-04-05T05:16:22.620Z,38
2019-04-05T05:18:27.390Z,35.3
2019-04-05T05:20:28.686Z,33.7
2019-04-05T05:22:30.110Z,33.2
2019-04-05T05:24:31.605Z,37.7
2019-04-05T05:26:33.164Z,38.5
2019-04-05T05:28:34.527Z,37.2
2019-04-05T05:30:35.929Z,36.9
2019-04-05T05:32:38.340Z,39
2019-04-05T05:34:39.672Z,35.4
2019-04-05T05:36:41.087Z,40.5
2019-04-05T05:38:42.427Z,38.1
2019-04-05T05:40:43.791Z,35.6
2019-04-05T05:42:45.219Z,40.6
2019-04-05T05:44:46.644Z,36.9
2019-04-05T05:46:48.073Z,34.4
2019-04-05T05:48:49.463Z,32.3
2019-04-05T05:50:50.832Z,33.3
2019-04-05T05:52:53.848Z,36.1
2019-04-05T05:54:55.234Z,37
2019-04-05T05:56:56.586Z,37.5
2019-04-05T05:58:59.577Z,40.5
2019-04-05T06:01:01.080Z,42.1
2019-04-05T06:03:02.452Z,37.6
2019-04-05T06:05:03.793Z,33.4
2019-04-05T06:07:05.213Z,36.2
2019-04-05T06:09:06.553Z,35.2
2019-04-05T06:11:07.980Z,36.8
2019-04-05T06:13:09.331Z,38.8
2019-04-05T06:15:10.736Z,34.1
2019-04-05T06:17:12.155Z,35.5
2019-04-05T06:19:13.486Z,36.5
2019-04-05T06:21:14.926Z,35.9
2019-04-05T06:23:16.344Z,34
2019-04-05T06:25:17.756Z,31.5
2019-04-05T06:27:19.174Z,32.1
2019-04-05T06:29:20.594Z,34.3
2019-04-05T06:31:22.026Z,35.3
2019-04-05T06:33:31.176Z,35.4
2019-04-05T06:35:33.585Z,31.8
2019-04-05T06:37:34.936Z,30.6
2019-04-05T06:39:36.364Z,31.5
2019-04-05T06:41:37.784Z,34.7
2019-04-05T06:43:39.138Z,30.3
2019-04-05T06:45:40.534Z,33.5
2019-04-05T06:47:42.404Z,34
2019-04-05T06:49:44.242Z,32.3
2019-04-05T06:51:45.585Z,35.2
2019-04-05T06:53:46.915Z,33
2019-04-05T06:55:48.341Z,29.5
2019-04-05T06:57:49.787Z,32.4
2019-04-05T06:59:51.297Z,31.7
2019-04-05T07:01:52.657Z,33.6
2019-04-05T07:03:55.296Z,32.5
2019-04-05T07:05:56.803Z,31.5
2019-04-05T07:07:58.238Z,35.9
2019-04-05T07:09:59.616Z,31.1
2019-04-05T07:12:01.037Z,30.8
2019-04-05T07:14:02.461Z,32.2
2019-04-05T07:16:03.894Z,33.7
2019-04-05T07:18:05.188Z,31.3
2019-04-05T07:20:06.658Z,31.6
2019-04-05T07:22:08.337Z,29
2019-04-05T07:24:09.759Z,37
2019-04-05T07:26:11.031Z,32.7
2019-04-05T07:28:12.317Z,33.8
2019-04-05T07:30:13.716Z,32.2
2019-04-05T07:32:15.114Z,28.5
2019-04-05T07:34:16.481Z,34.5
2019-04-05T07:36:17.862Z,31.6
2019-04-05T07:38:19.247Z,31.3
2019-04-05T07:40:20.677Z,35.4
2019-04-05T07:42:22.443Z,31.6
2019-04-05T07:44:23.823Z,35.5
2019-04-05T07:46:25.366Z,30.3
2019-04-05T07:48:27.015Z,31.4
2019-04-05T07:50:28.794Z,31.8
2019-04-05T07:52:30.759Z,35
2019-04-05T07:54:32.513Z,28.5
2019-04-05T07:56:33.869Z,33.1
2019-04-05T07:58:35.246Z,26.7
2019-04-05T08:00:36.679Z,32.4
2019-04-05T08:02:38.612Z,35.6
2019-04-05T08:04:40.638Z,28.3
2019-04-05T08:06:42.065Z,31.7
2019-04-05T08:08:43.558Z,32
2019-04-05T08:10:45.023Z,27.6
2019-04-05T08:12:46.453Z,36.7
2019-04-05T08:14:47.786Z,36.2
2019-04-05T08:16:49.158Z,28.4
2019-04-05T08:18:57.415Z,32.4
2019-04-05T08:20:59.782Z,32.9
2019-04-05T08:23:01.205Z,29.3
2019-04-05T08:25:02.621Z,30
2019-04-05T08:27:03.973Z,27.8
2019-04-05T08:29:07.085Z,30.4
2019-04-05T08:31:10.615Z,32.5
2019-04-05T08:33:16.253Z,33.8
2019-04-05T08:35:17.671Z,28
2019-04-05T08:37:19.094Z,34.5
2019-04-05T08:39:20.562Z,30.8
2019-04-05T08:41:21.871Z,34
2019-04-05T08:43:23.247Z,27.4
2019-04-05T08:45:24.626Z,23.6
2019-04-05T08:47:25.960Z,23.5
2019-04-05T08:49:27.466Z,24.3
2019-04-05T08:51:34.663Z,25.6
2019-04-05T08:53:36.256Z,27.6
2019-04-05T08:55:38.621Z,29.3
2019-04-05T08:57:41.680Z,30.1
2019-04-05T08:59:43.202Z,27.4
2019-04-05T09:01:45.691Z,24.5
2019-04-05T09:03:47.265Z,25.5
2019-04-05T09:05:48.975Z,24.4
2019-04-05T09:07:50.787Z,25
2019-04-05T09:09:52.185Z,30.2
2019-04-05T09:11:54.017Z,27.6
2019-04-05T09:13:56.501Z,31.9
2019-04-05T09:15:58.201Z,30
2019-04-05T09:17:59.797Z,33.7
2019-04-05T09:20:01.691Z,28.2
2019-04-05T09:22:03.276Z,32.5
2019-04-05T09:24:05.014Z,28.9
2019-04-05T09:26:07.943Z,35.1
2019-04-05T09:28:10.677Z,33.9
2019-04-05T09:30:12.403Z,32.6
2019-04-05T09:32:14.035Z,36.7
2019-04-05T09:34:15.397Z,38.6
2019-04-05T09:36:18.637Z,36.2
2019-04-05T09:38:22.461Z,27.3
2019-04-05T09:40:24.087Z,37.3
2019-04-05T09:42:33.491Z,44.6
2019-04-05T09:44:36.497Z,34.5
2019-04-05T09:51:41.134Z,32.6
2019-04-05T09:53:43.128Z,28.2
2019-04-05T09:55:45.089Z,33.8
2019-04-05T09:57:47.156Z,27.8
2019-04-05T09:59:50.365Z,37.4
2019-04-05T10:01:53.584Z,40.6
2019-04-05T10:03:55.082Z,43.6
2019-04-05T10:05:56.739Z,39.3
2019-04-05T10:07:59.617Z,33.1
2019-04-05T10:10:02.600Z,40.4
2019-04-05T10:12:04.735Z,30.3
2019-04-05T10:14:07.131Z,36.3
2019-04-05T10:16:08.791Z,36.5
2019-04-05T10:18:12.364Z,43.2
2019-04-05T10:20:14.185Z,33.7
2019-04-05T10:22:17.210Z,37.1
2019-04-05T10:24:19.706Z,31.9
2019-04-05T10:26:22.568Z,30.9
2019-04-05T10:28:26.636Z,29.5
2019-04-05T10:30:29.607Z,34.7
2019-04-05T10:32:32.284Z,31.5
2019-04-05T10:34:49.323Z,36.9
2019-04-05T10:36:53.318Z,35.3
2019-04-05T10:39:01.155Z,38.8
2019-04-05T10:41:06.919Z,33.2
2019-04-05T13:33:23.498Z,45.3
2019-04-05T13:35:25.470Z,45
2019-04-05T13:37:28.458Z,35.3
2019-04-05T13:39:32.685Z,38.7
2019-04-05T13:41:34.150Z,40.9
2019-04-05T13:43:35.660Z,39.7
2019-04-05T13:45:37.014Z,41.9
2019-04-05T13:47:39.110Z,40
2019-04-05T13:49:41.288Z,39.5
2019-04-05T13:51:42.969Z,45.7
2019-04-05T13:53:44.454Z,37.1
2019-04-05T13:55:47.309Z,36.6
2019-04-05T13:59:40.375Z,40.7
2019-04-05T14:01:41.799Z,35.8
2019-04-05T14:03:43.425Z,40.1
2019-04-05T14:05:44.853Z,35.6
2019-04-05T14:07:46.198Z,36.4
2019-04-05T14:09:47.537Z,40.2
2019-04-05T14:11:49.254Z,33.3
2019-04-05T14:13:51.321Z,37.2
2019-04-05T14:15:52.737Z,36.3
2019-04-05T14:17:54.168Z,40
2019-04-05T14:19:55.599Z,43.6
2019-04-05T14:22:07.698Z,33.8
2019-04-05T14:24:10.554Z,33.8
2019-04-05T14:26:11.904Z,34
2019-04-05T14:28:13.291Z,37.2
2019-04-05T14:30:14.659Z,38.6
2019-04-05T14:32:20.786Z,38.1
2019-04-05T14:34:23.783Z,38.3
2019-04-05T14:36:25.874Z,37.4
2019-04-05T14:38:27.308Z,33.7
2019-04-05T14:40:30.380Z,31.3
2019-04-05T14:42:34.484Z,39.2
2019-04-05T14:44:35.931Z,36.7
2019-04-05T14:46:38.397Z,41.7
2019-04-05T14:48:40.006Z,37.8
2019-04-05T14:50:41.433Z,34.2
2019-04-05T14:52:42.898Z,41.4
2019-04-05T14:54:44.292Z,38.7
2019-04-05T14:56:45.724Z,38.4
2019-04-05T14:58:47.124Z,35.1
2019-04-05T15:00:48.557Z,38.2
2019-04-05T15:02:49.915Z,41.9
2019-04-05T15:04:51.257Z,31.9
2019-04-05T15:06:52.866Z,37.2
2019-04-05T15:08:54.346Z,41.1
2019-04-05T15:10:56.803Z,38
2019-04-05T15:13:00.176Z,32.3
2019-04-05T15:15:01.950Z,32.7
2019-04-05T15:17:03.469Z,41.3
2019-04-05T15:19:04.903Z,42.8
2019-04-05T15:21:06.613Z,41.9
2019-04-05T15:23:09.507Z,40.6
2019-04-05T15:25:16.496Z,40.9
2019-04-05T15:27:22.652Z,44.2
2019-04-05T15:29:26.099Z,46
2019-04-05T15:31:28.022Z,44.1
2019-04-05T15:33:29.461Z,45.3
2019-04-05T15:35:30.891Z,37.3
2019-04-05T15:37:32.609Z,42.9
2019-04-05T15:39:34.065Z,38
2019-04-05T15:41:35.500Z,41.3
2019-04-05T15:43:36.749Z,36.9
2019-04-05T15:45:38.182Z,42.8
2019-04-05T15:47:39.613Z,36.7
2019-04-05T15:49:41.046Z,40.9
2019-04-05T15:51:42.407Z,41.5
2019-04-05T15:53:43.845Z,34.4
2019-04-05T15:55:45.282Z,33.4
2019-04-05T15:57:46.634Z,37.6
2019-04-05T15:59:47.971Z,41.5
2019-04-05T16:01:49.406Z,44.4
2019-04-05T16:03:50.772Z,45.1
2019-04-05T16:05:52.233Z,45.1
2019-04-05T16:07:53.648Z,44
2019-04-05T16:09:55.088Z,43.6
2019-04-05T16:11:56.520Z,42.9
2019-04-05T16:13:57.960Z,39
2019-04-05T16:15:59.391Z,40.4
2019-04-05T16:18:00.842Z,47
2019-04-05T16:20:02.373Z,41.4
2019-04-05T16:22:03.996Z,45.1
2019-04-05T16:24:05.428Z,40
2019-04-05T16:26:06.770Z,43.1
2019-04-05T16:28:08.209Z,38.1
2019-04-05T16:30:09.566Z,39
2019-04-05T16:32:10.991Z,48.3
2019-04-05T16:34:12.431Z,56.3
2019-04-05T16:36:13.804Z,50.2
2019-04-05T16:38:15.144Z,43.7
2019-04-05T16:40:16.581Z,44.4
2019-04-05T16:42:18.029Z,44.8
2019-04-05T16:44:19.462Z,46.9
2019-04-05T16:46:20.798Z,42.3
2019-04-05T16:48:22.136Z,48.4
2019-04-05T16:50:23.478Z,43.4
2019-04-05T16:52:24.817Z,40.3
2019-04-05T16:54:26.251Z,41.3
2019-04-05T16:56:27.585Z,43.4
2019-04-05T17:03:29.164Z,38.8
2019-04-05T17:05:30.541Z,35.8
2019-04-05T17:07:31.974Z,41.7
2019-04-05T17:09:33.411Z,36.8
2019-04-05T17:11:34.817Z,36.2
2019-04-05T17:13:36.154Z,35.4
2019-04-05T17:15:37.582Z,38.8
2019-04-05T17:17:38.865Z,42.8
2019-04-05T17:19:40.289Z,43.7
2019-04-05T17:21:41.723Z,45.1
2019-04-05T17:23:43.156Z,38.6
2019-04-05T17:25:44.600Z,39.1
2019-04-05T17:27:46.033Z,37.3
2019-04-05T17:29:47.470Z,34.9
2019-04-05T17:31:48.905Z,43.7
2019-04-05T17:33:50.338Z,42.1
2019-04-05T17:35:51.764Z,43.6
2019-04-05T17:37:53.107Z,43.9
2019-04-05T17:39:54.542Z,44.4
2019-04-05T17:41:56.075Z,43.3
2019-04-05T17:43:57.506Z,47.8
2019-04-05T17:45:58.939Z,41.6
2019-04-05T17:48:00.380Z,46.4
2019-04-05T17:50:01.807Z,44.7
2019-04-05T17:52:03.238Z,48.5
2019-04-05T17:54:04.676Z,44.2
2019-04-05T17:56:06.067Z,50.6
2019-04-05T18:03:22.363Z,51.6
2019-04-05T18:05:23.731Z,54.2
2019-04-05T18:07:25.092Z,52.1
2019-04-05T18:09:27.389Z,48.1
2019-04-05T18:11:28.911Z,53.1
2019-04-05T18:13:30.173Z,56.5
2019-04-05T18:15:31.569Z,50.1
2019-04-05T18:17:32.926Z,48.6
2019-04-05T18:19:34.350Z,47.3
2019-04-05T18:21:35.822Z,45.5
2019-04-05T18:23:37.221Z,50.2
2019-04-05T18:25:38.567Z,41.9
2019-04-05T18:27:40.002Z,51.2
2019-04-05T18:29:41.442Z,48.9
2019-04-05T18:31:42.843Z,44.4
2019-04-05T18:33:44.272Z,43.6
2019-04-05T18:35:45.621Z,48.9
2019-04-05T18:37:47.038Z,49.4
2019-04-05T18:39:48.478Z,48.9
2019-04-05T18:41:49.888Z,44.9
2019-04-05T18:43:51.319Z,47
2019-04-05T18:45:52.754Z,44.3
2019-04-05T18:47:54.188Z,45.7
2019-04-05T18:50:02.648Z,47.8
2019-04-05T18:52:04.975Z,51
2019-04-05T18:54:06.406Z,49.7
2019-04-05T18:56:07.831Z,46.6
2019-04-05T18:58:09.268Z,49.2
2019-04-05T19:00:10.703Z,47.1
2019-04-05T19:02:12.134Z,49.8
2019-04-05T19:04:13.621Z,42.3
2019-04-05T19:06:15.002Z,45.2
2019-04-05T19:08:16.533Z,41.2
2019-04-05T19:10:19.787Z,41.8
2019-04-05T19:12:21.227Z,44.3
2019-04-05T19:14:22.631Z,43.4
2019-04-05T19:16:24.031Z,45.4
2019-04-05T19:18:25.479Z,44.6
2019-04-05T19:20:26.894Z,46.4
2019-04-05T19:22:28.252Z,39.1
2019-04-05T19:24:29.686Z,45.4
2019-04-05T19:26:31.128Z,48.1
2019-04-05T19:28:32.589Z,50.5
2019-04-05T19:50:30.683Z,46.5
2019-04-05T19:52:32.103Z,47.2
2019-04-05T19:54:33.380Z,46.3
2019-04-05T19:56:34.806Z,47.8
2019-04-05T19:58:36.240Z,50.2
2019-04-05T20:00:37.578Z,44.2
2019-04-05T20:02:39.021Z,45
2019-04-05T20:04:40.452Z,38.9
2019-04-05T20:06:41.804Z,45.1
2019-04-05T20:08:43.230Z,48.8
2019-04-05T20:10:44.681Z,42
2019-04-05T20:12:46.015Z,44.1
2019-04-05T20:14:47.457Z,45.2
2019-04-05T20:16:48.885Z,44.9
2019-04-05T20:18:50.310Z,37.5
2019-04-05T20:20:51.748Z,43.4
2019-04-05T20:22:53.179Z,45.3
2019-04-05T20:24:54.605Z,52.2
2019-04-05T20:26:55.947Z,48.2
2019-04-05T20:28:57.344Z,41.9
2019-04-05T20:30:58.681Z,48.7
2019-04-05T20:33:00.025Z,43.6
2019-04-05T20:35:01.386Z,40.4
2019-04-05T20:37:02.806Z,42.4
2019-04-05T20:39:04.193Z,45.1
2019-04-05T20:41:05.571Z,42.9
2019-04-05T20:43:06.907Z,42.2
2019-04-05T20:45:08.391Z,45.3
2019-04-05T20:47:09.874Z,40.5
2019-04-05T20:49:12.034Z,38.1
2019-04-05T20:51:13.541Z,43.2
2019-04-05T20:53:14.967Z,43.2
2019-04-05T20:55:16.317Z,42
2019-04-05T20:57:17.745Z,43.5
2019-04-05T21:05:25.446Z,44.5
2019-04-05T21:07:27.239Z,41.1
2019-04-05T21:09:28.573Z,45.2
2019-04-05T21:11:29.843Z,41
2019-04-05T21:13:31.127Z,41.8
2019-04-05T21:15:32.581Z,40.7
2019-04-05T21:17:33.947Z,43.1
2019-04-05T21:19:35.308Z,44.4
2019-04-05T21:21:36.685Z,45.4
2019-04-05T21:23:38.110Z,45.4
2019-04-05T21:25:39.541Z,40.2
2019-04-05T21:27:40.880Z,39.8
2019-04-05T21:29:42.211Z,43.2
2019-04-05T21:31:43.631Z,40.8
2019-04-05T21:33:44.967Z,36
2019-04-05T21:35:46.333Z,34.8
2019-04-05T21:37:47.735Z,43.9
2019-04-05T21:39:49.068Z,30.2
2019-04-05T21:41:50.497Z,31.4
2019-04-05T21:43:51.930Z,28.6
2019-04-05T21:45:53.281Z,46
2019-04-05T21:47:54.693Z,47.6
2019-04-05T21:49:56.051Z,48.8
2019-04-05T21:51:57.343Z,44.5
2019-04-05T21:53:58.977Z,49.7
2019-04-05T21:56:00.412Z,52.3
2019-04-05T21:58:01.667Z,66.2
2019-04-05T22:00:02.998Z,47.1
2019-04-05T22:02:04.429Z,44.8
2019-04-05T22:04:05.867Z,44.1
2019-04-05T22:06:07.302Z,44.8
2019-04-05T22:08:08.730Z,42
2019-04-05T22:10:10.169Z,39.2
2019-04-05T22:12:11.560Z,49.2
2019-04-05T22:14:12.974Z,51
2019-04-05T22:16:14.407Z,49.8
2019-04-05T22:18:15.884Z,48.4
2019-04-05T22:20:17.278Z,47
2019-04-05T22:22:18.710Z,42.8
2019-04-05T22:24:20.135Z,47.6
2019-04-05T22:26:21.570Z,44.8
2019-04-05T22:28:22.903Z,42.4
2019-04-05T22:30:24.249Z,44.8
2019-04-05T22:32:25.622Z,44.2
2019-04-05T22:34:27.060Z,43.1
2019-04-05T22:36:28.494Z,43.2
2019-04-05T22:38:29.927Z,69.9
2019-04-05T22:40:31.277Z,64.3
2019-04-05T22:42:32.708Z,58.5
2019-04-05T22:44:38.929Z,46.8
2019-04-05T22:46:42.979Z,57.9
2019-04-05T22:48:44.423Z,76.9
2019-04-05T22:50:45.840Z,58.1
2019-04-05T22:52:47.238Z,52.9
2019-04-05T22:54:48.661Z,45.2
2019-04-05T22:56:49.991Z,46.8
2019-04-05T22:58:51.428Z,44.7
2019-04-05T23:00:52.805Z,44.2
2019-04-05T23:02:54.270Z,47.6
2019-04-05T23:04:55.685Z,43.3
2019-04-05T23:06:57.120Z,45
2019-04-05T23:08:58.556Z,43.7
2019-04-05T23:10:59.992Z,45
2019-04-05T23:13:01.417Z,44.8
2019-04-05T23:15:02.720Z,43.4
2019-04-05T23:17:04.058Z,38.1
2019-04-05T23:19:05.417Z,50.4
2019-04-05T23:21:06.760Z,46
2019-04-05T23:25:17.101Z,46.2
2019-04-05T23:27:23.776Z,46.4
2019-04-05T23:29:25.202Z,47
2019-04-05T23:31:26.534Z,47.8
2019-04-05T23:33:27.806Z,45.4
2019-04-05T23:35:29.247Z,45.8
2019-04-05T23:37:30.575Z,46.3
2019-04-05T23:39:32.008Z,41.9
2019-04-05T23:41:33.437Z,46.4
2019-04-05T23:43:34.818Z,49.8
2019-04-05T23:45:36.249Z,41.7
2019-04-05T23:47:37.672Z,42.3
2019-04-05T23:49:39.105Z,50.9
2019-04-05T23:51:40.378Z,48.2
2019-04-05T23:53:41.811Z,48.8
2019-04-05T23:55:43.250Z,51.5
2019-04-05T23:57:44.670Z,47
2019-04-05T23:59:46.100Z,47.2
